Time;durP1;ratioP1;P1;durP2;ratioP2;P2;SDS_P1;SDS_P2;PMS_P1;PMS_P2;Temp;Humidity;BMP_temperature;BMP_pressure;BME280_temperature;BME280_humidity;BME280_pressure;Samples;Min_cycle;Max_cycle;Signal;HPM_P1;HPM_P2
2023/09/30 00:01:18;;;;;;;10.23;9.93;;;17.30;99.90;;;;;;5065597;28;20238;-81
2023/09/30 00:03:45;;;;;;;10.73;10.43;;;17.30;99.90;;;;;;5071885;28;20235;-81
2023/09/30 00:06:12;;;;;;;10.60;10.30;;;17.20;99.90;;;;;;5069627;28;20264;-81
2023/09/30 00:08:41;;;;;;;10.68;10.38;;;17.30;99.90;;;;;;5067654;28;20223;-81
2023/09/30 00:11:10;;;;;;;10.75;10.45;;;17.20;99.90;;;;;;5066217;28;20226;-81
2023/09/30 00:13:38;;;;;;;10.60;10.30;;;17.20;99.90;;;;;;5065617;28;20238;-81
2023/09/30 00:16:05;;;;;;;10.77;10.48;;;17.10;99.90;;;;;;5065327;28;20226;-81
2023/09/30 00:18:32;;;;;;;10.52;10.23;;;17.10;99.90;;;;;;5065214;28;20227;-81
2023/09/30 00:21:00;;;;;;;10.63;10.32;;;17.00;99.90;;;;;;5066021;28;20257;-81
2023/09/30 00:23:27;;;;;;;10.80;10.50;;;16.90;99.90;;;;;;5066578;28;20237;-81
2023/09/30 00:25:54;;;;;;;10.60;10.30;;;16.80;99.90;;;;;;5068877;28;20238;-81
2023/09/30 00:28:22;;;;;;;10.50;10.20;;;16.80;99.90;;;;;;5068744;28;20246;-81
2023/09/30 00:30:50;;;;;;;10.52;10.23;;;16.80;99.90;;;;;;5069440;28;20231;-81
2023/09/30 00:33:17;;;;;;;10.80;10.50;;;16.80;99.90;;;;;;5068194;28;20243;-81
2023/09/30 00:35:44;;;;;;;10.50;10.20;;;16.70;99.90;;;;;;5069039;28;20227;-81
2023/09/30 00:38:11;;;;;;;10.55;10.25;;;16.70;99.90;;;;;;5070539;28;20203;-81
2023/09/30 00:40:38;;;;;;;10.57;10.27;;;16.70;99.90;;;;;;5070016;28;20253;-81
2023/09/30 00:43:06;;;;;;;10.45;10.15;;;16.80;99.90;;;;;;5068251;28;20241;-81
2023/09/30 00:45:35;;;;;;;10.52;10.23;;;16.70;99.90;;;;;;5067929;28;20226;-81
2023/09/30 00:48:03;;;;;;;10.75;10.45;;;16.80;99.90;;;;;;5068728;28;20223;-81
2023/09/30 00:50:30;;;;;;;10.50;10.20;;;16.70;99.90;;;;;;5070209;28;20230;-81
2023/09/30 00:52:57;;;;;;;10.73;10.43;;;16.80;99.90;;;;;;5068527;28;20242;-82
2023/09/30 00:55:24;;;;;;;10.80;10.50;;;16.80;99.90;;;;;;5068688;28;20227;-82
2023/09/30 00:57:52;;;;;;;10.43;10.13;;;16.90;99.90;;;;;;5068322;28;20215;-81
2023/09/30 01:00:19;;;;;;;10.60;10.30;;;16.90;99.90;;;;;;5067474;28;20230;-82
2023/09/30 01:02:48;;;;;;;10.52;10.23;;;16.90;99.90;;;;;;5068264;28;20246;-82
2023/09/30 01:05:15;;;;;;;10.50;10.20;;;16.90;99.90;;;;;;5068148;28;20321;-81
2023/09/30 01:07:42;;;;;;;10.55;10.25;;;16.90;99.90;;;;;;5068409;28;20267;-81
2023/09/30 01:10:10;;;;;;;10.70;10.40;;;16.90;99.90;;;;;;5068328;28;20231;-82
2023/09/30 01:12:38;;;;;;;10.70;10.40;;;16.90;99.90;;;;;;5068873;28;20262;-81
2023/09/30 01:15:06;;;;;;;10.80;10.50;;;16.90;99.90;;;;;;5073154;28;20223;-82
2023/09/30 01:17:33;;;;;;;10.55;10.25;;;17.00;99.90;;;;;;5071930;28;20334;-82
2023/09/30 01:20:04;;;;;;;10.77;10.48;;;17.00;99.90;;;;;;5069346;28;20234;-83
2023/09/30 01:22:33;;;;;;;10.55;10.25;;;16.90;99.90;;;;;;5068130;28;20262;-82
2023/09/30 01:25:01;;;;;;;10.68;10.38;;;16.90;99.90;;;;;;5067137;28;20223;-82
2023/09/30 01:27:28;;;;;;;10.73;10.43;;;17.00;99.90;;;;;;5067492;28;20249;-81
2023/09/30 01:29:55;;;;;;;10.65;10.35;;;17.00;99.90;;;;;;5068076;28;20238;-81
2023/09/30 01:32:22;;;;;;;10.38;10.07;;;17.00;99.90;;;;;;5073438;28;20239;-81
2023/09/30 01:34:49;;;;;;;10.52;10.23;;;17.00;99.90;;;;;;5071930;28;20243;-81
2023/09/30 01:37:16;;;;;;;10.60;10.30;;;17.00;99.90;;;;;;5071906;28;20238;-82
2023/09/30 01:39:45;;;;;;;10.45;10.15;;;17.10;99.90;;;;;;5073402;28;20226;-81
2023/09/30 01:42:12;;;;;;;10.63;10.32;;;17.10;99.90;;;;;;5072405;28;20235;-81
2023/09/30 01:44:39;;;;;;;10.60;10.30;;;17.10;99.90;;;;;;5072888;28;20231;-81
2023/09/30 01:47:07;;;;;;;10.55;10.25;;;17.10;99.90;;;;;;5086357;22;20263;-86
2023/09/30 01:49:34;;;;;;;10.70;10.40;;;17.00;99.90;;;;;;5059686;28;20246;-87
2023/09/30 01:52:02;;;;;;;10.70;10.40;;;17.00;99.90;;;;;;5059687;28;20239;-86
2023/09/30 01:54:30;;;;;;;10.80;10.50;;;17.10;99.90;;;;;;5060121;28;20231;-87
2023/09/30 01:56:59;;;;;;;10.73;10.43;;;17.10;99.90;;;;;;5059576;28;20230;-87
2023/09/30 01:59:28;;;;;;;10.75;10.45;;;17.10;99.90;;;;;;5059936;28;20238;-87
2023/09/30 02:01:59;;;;;;;10.65;10.35;;;17.20;99.90;;;;;;5059704;28;20222;-86
2023/09/30 02:04:27;;;;;;;10.60;10.30;;;17.10;99.90;;;;;;5059637;28;20238;-87
2023/09/30 02:06:54;;;;;;;10.60;10.30;;;17.10;99.90;;;;;;5059292;28;20695;-87
2023/09/30 02:09:21;;;;;;;10.60;10.30;;;17.20;99.90;;;;;;5059544;28;20235;-87
2023/09/30 02:11:49;;;;;;;10.75;10.45;;;17.20;99.90;;;;;;5059550;28;20231;-87
2023/09/30 02:14:19;;;;;;;10.70;10.40;;;17.10;99.90;;;;;;5058934;28;20239;-88
2023/09/30 02:16:46;;;;;;;10.77;10.48;;;17.10;99.90;;;;;;5058880;28;20227;-87
2023/09/30 02:19:14;;;;;;;10.68;10.38;;;17.10;99.90;;;;;;5059255;28;20282;-86
2023/09/30 02:21:43;;;;;;;10.75;10.45;;;17.10;99.90;;;;;;5058577;28;20262;-87
2023/09/30 02:24:10;;;;;;;10.52;10.23;;;17.00;99.90;;;;;;5059409;28;20330;-87
2023/09/30 02:26:38;;;;;;;10.57;10.27;;;17.00;99.90;;;;;;5058582;28;20239;-87
2023/09/30 02:29:07;;;;;;;10.50;10.20;;;17.00;99.90;;;;;;5059383;28;20239;-87
2023/09/30 02:31:38;;;;;;;10.40;10.10;;;16.90;99.90;;;;;;5058602;28;20239;-87
2023/09/30 02:34:08;;;;;;;10.60;10.30;;;16.80;99.90;;;;;;5058867;28;20451;-87
2023/09/30 02:36:39;;;;;;;10.57;10.27;;;16.90;99.90;;;;;;5058632;28;20222;-87
2023/09/30 02:39:09;;;;;;;10.40;10.10;;;16.80;99.90;;;;;;5059620;28;20305;-87
2023/09/30 02:41:37;;;;;;;10.40;10.10;;;16.80;99.90;;;;;;5076367;28;20218;-87
2023/09/30 02:44:07;;;;;;;10.55;10.25;;;16.80;99.90;;;;;;5079725;28;20235;-87
2023/09/30 02:46:37;;;;;;;10.20;9.90;;;16.70;99.90;;;;;;5078202;28;20285;-87
2023/09/30 02:49:07;;;;;;;10.25;9.95;;;16.70;99.90;;;;;;5070065;28;20250;-87
2023/09/30 02:51:35;;;;;;;10.30;10.00;;;16.70;99.90;;;;;;5068825;28;20245;-87
2023/09/30 02:54:07;;;;;;;10.20;9.90;;;16.70;99.90;;;;;;5065966;28;20249;-87
2023/09/30 02:56:38;;;;;;;10.48;10.18;;;16.70;99.90;;;;;;5063673;28;20238;-87
2023/09/30 02:59:08;;;;;;;10.40;10.10;;;16.70;99.90;;;;;;5065252;28;20230;-86
2023/09/30 03:01:41;;;;;;;10.38;10.07;;;16.70;99.90;;;;;;5076460;28;20230;-87
2023/09/30 03:04:09;;;;;;;10.35;10.05;;;16.60;99.90;;;;;;5064730;28;20258;-87
2023/09/30 03:06:38;;;;;;;10.43;10.13;;;16.60;99.90;;;;;;5059244;28;20231;-86
2023/09/30 03:09:09;;;;;;;10.15;9.85;;;16.50;99.90;;;;;;5058893;28;20265;-87
2023/09/30 03:11:36;;;;;;;10.20;9.90;;;16.50;99.90;;;;;;5059687;28;20235;-87
2023/09/30 03:14:07;;;;;;;10.40;10.10;;;16.40;99.90;;;;;;5058339;28;20253;-87
2023/09/30 03:16:41;;;;;;;10.27;9.98;;;16.40;99.90;;;;;;5058169;28;20239;-87
2023/09/30 03:19:11;;;;;;;9.90;9.60;;;16.20;99.90;;;;;;5058719;28;20258;-86
2023/09/30 03:21:39;;;;;;;10.13;9.82;;;15.90;99.90;;;;;;5058210;28;20234;-87
2023/09/30 03:24:08;;;;;;;10.07;9.77;;;15.80;99.90;;;;;;5058092;28;20329;-87
2023/09/30 03:26:36;;;;;;;9.95;9.65;;;15.70;99.90;;;;;;5058075;28;20226;-86
2023/09/30 03:29:05;;;;;;;9.88;9.57;;;15.50;99.90;;;;;;5058400;28;20252;-86
2023/09/30 03:31:33;;;;;;;10.38;10.07;;;15.40;99.90;;;;;;5058699;28;20235;-86
2023/09/30 03:34:01;;;;;;;10.02;9.73;;;15.40;99.90;;;;;;5057692;28;20243;-87
2023/09/30 03:36:29;;;;;;;9.77;9.48;;;15.30;99.90;;;;;;5058008;28;20234;-87
2023/09/30 03:38:59;;;;;;;9.90;9.60;;;15.40;99.90;;;;;;5058129;28;20271;-87
2023/09/30 03:41:26;;;;;;;9.73;9.43;;;15.40;99.90;;;;;;5058117;28;20286;-87
2023/09/30 03:43:53;;;;;;;10.00;9.70;;;15.30;99.90;;;;;;5057696;28;20234;-86
2023/09/30 03:46:21;;;;;;;9.90;9.60;;;15.30;99.90;;;;;;5056953;28;20234;-87
2023/09/30 03:48:48;;;;;;;9.90;9.60;;;15.30;99.90;;;;;;5057814;28;20230;-87
2023/09/30 03:51:17;;;;;;;10.20;9.90;;;15.10;99.90;;;;;;5057846;28;20234;-87
2023/09/30 03:53:46;;;;;;;9.90;9.60;;;15.10;99.90;;;;;;5057737;28;20300;-87
2023/09/30 03:56:13;;;;;;;10.07;9.77;;;15.00;99.90;;;;;;5058041;28;20265;-85
2023/09/30 03:58:41;;;;;;;10.30;10.00;;;14.90;99.90;;;;;;5059612;28;20239;-86
2023/09/30 04:01:11;;;;;;;10.05;9.75;;;14.90;99.90;;;;;;5061785;28;20317;-87
2023/09/30 04:03:39;;;;;;;9.77;9.48;;;14.90;99.90;;;;;;5061570;28;20238;-86
2023/09/30 04:06:07;;;;;;;10.10;9.80;;;14.80;99.90;;;;;;5060766;28;20237;-86
2023/09/30 04:08:36;;;;;;;9.88;9.57;;;14.70;99.90;;;;;;5061576;28;20238;-86
2023/09/30 04:11:04;;;;;;;10.13;9.82;;;14.60;99.90;;;;;;5061544;28;20219;-86
2023/09/30 04:13:32;;;;;;;9.93;9.63;;;14.60;99.90;;;;;;5061814;28;20242;-87
2023/09/30 04:16:00;;;;;;;9.95;9.65;;;14.60;99.90;;;;;;5061000;28;20301;-86
2023/09/30 04:18:28;;;;;;;9.90;9.60;;;14.60;99.90;;;;;;5061084;28;20289;-86
2023/09/30 04:20:55;;;;;;;9.98;9.68;;;14.60;99.90;;;;;;5061471;28;20227;-86
2023/09/30 04:23:23;;;;;;;9.90;9.60;;;14.60;99.90;;;;;;5061030;28;20231;-86
2023/09/30 04:25:51;;;;;;;9.98;9.68;;;14.60;99.90;;;;;;5060515;28;20222;-86
2023/09/30 04:28:20;;;;;;;9.65;9.35;;;14.60;99.90;;;;;;5061269;28;20265;-87
2023/09/30 04:30:49;;;;;;;9.77;9.48;;;14.50;99.90;;;;;;5061210;28;20241;-86
2023/09/30 04:33:19;;;;;;;9.80;9.50;;;14.50;99.90;;;;;;5060854;28;20297;-86
2023/09/30 04:35:47;;;;;;;9.68;9.38;;;14.50;99.90;;;;;;5060577;28;20286;-86
2023/09/30 04:38:14;;;;;;;9.77;9.48;;;14.50;99.90;;;;;;5061287;28;20302;-87
2023/09/30 04:40:44;;;;;;;9.70;9.40;;;14.50;99.90;;;;;;5063704;28;20292;-86
2023/09/30 04:43:14;;;;;;;9.80;9.50;;;14.50;99.90;;;;;;5063361;28;20239;-86
2023/09/30 04:45:41;;;;;;;9.80;9.50;;;14.40;99.90;;;;;;5062076;28;20219;-86
2023/09/30 04:48:08;;;;;;;9.75;9.45;;;14.40;99.90;;;;;;5060995;28;20230;-86
2023/09/30 04:50:40;;;;;;;9.82;9.52;;;14.40;99.90;;;;;;5060993;28;20235;-86
2023/09/30 04:53:07;;;;;;;9.90;9.60;;;14.40;99.90;;;;;;5060836;28;20314;-86
2023/09/30 04:55:38;;;;;;;9.65;9.35;;;14.40;99.90;;;;;;5060570;28;20223;-86
2023/09/30 04:58:08;;;;;;;9.60;9.30;;;14.40;99.90;;;;;;5062838;28;20317;-86
2023/09/30 05:00:37;;;;;;;9.63;9.32;;;14.30;99.90;;;;;;5064279;28;20326;-87
2023/09/30 05:03:07;;;;;;;9.57;9.27;;;14.30;99.90;;;;;;5063433;28;20226;-86
2023/09/30 05:05:38;;;;;;;9.80;9.50;;;14.20;99.90;;;;;;5065826;28;20285;-87
2023/09/30 05:08:11;;;;;;;9.80;9.50;;;14.20;99.90;;;;;;5060626;28;20246;-86
2023/09/30 05:10:38;;;;;;;10.13;9.82;;;14.20;99.90;;;;;;5060240;28;20314;-87
2023/09/30 05:13:06;;;;;;;10.30;10.00;;;14.20;99.90;;;;;;5060672;28;20235;-86
2023/09/30 05:15:35;;;;;;;10.00;9.70;;;14.20;99.90;;;;;;5060725;28;20305;-87
2023/09/30 05:18:05;;;;;;;10.07;9.77;;;14.20;99.90;;;;;;5060637;28;20238;-86
2023/09/30 05:20:36;;;;;;;10.15;9.85;;;14.20;99.90;;;;;;5059920;28;20233;-86
2023/09/30 05:23:04;;;;;;;9.90;9.60;;;14.20;99.90;;;;;;5060766;28;20235;-87
2023/09/30 05:25:33;;;;;;;9.90;9.60;;;14.10;99.90;;;;;;5060324;28;20219;-86
2023/09/30 05:28:05;;;;;;;10.13;9.82;;;14.20;99.90;;;;;;5060293;28;20269;-86
2023/09/30 05:30:33;;;;;;;10.00;9.70;;;14.20;99.90;;;;;;5060800;28;20234;-88
2023/09/30 05:33:05;;;;;;;9.77;9.48;;;14.20;99.90;;;;;;5060336;28;20235;-86
2023/09/30 05:35:33;;;;;;;9.77;9.48;;;14.20;99.90;;;;;;5060199;28;20230;-86
2023/09/30 05:38:00;;;;;;;10.10;9.80;;;14.20;99.90;;;;;;5059642;28;20238;-86
2023/09/30 05:40:30;;;;;;;10.00;9.70;;;14.30;99.90;;;;;;5059963;28;20643;-86
2023/09/30 05:42:59;;;;;;;9.80;9.50;;;14.30;99.90;;;;;;5059664;28;20230;-87
2023/09/30 05:45:34;;;;;;;9.70;9.40;;;14.40;99.90;;;;;;5059606;28;20230;-87
2023/09/30 05:48:06;;;;;;;10.10;9.80;;;14.40;99.90;;;;;;5059296;28;20242;-87
2023/09/30 05:50:36;;;;;;;9.80;9.50;;;14.40;99.90;;;;;;5059680;28;20325;-86
2023/09/30 05:53:04;;;;;;;9.82;9.52;;;14.40;99.90;;;;;;5059108;28;20284;-86
2023/09/30 05:55:33;;;;;;;9.70;9.40;;;14.40;99.90;;;;;;5059001;28;20235;-86
2023/09/30 05:58:01;;;;;;;9.80;9.50;;;14.40;99.90;;;;;;5058865;28;20249;-86
2023/09/30 06:00:30;;;;;;;9.95;9.65;;;14.30;99.90;;;;;;5059192;28;20235;-86
2023/09/30 06:02:58;;;;;;;9.80;9.50;;;14.30;99.90;;;;;;5059241;28;20270;-87
2023/09/30 06:05:29;;;;;;;9.90;9.60;;;14.40;99.90;;;;;;5059457;28;20262;-86
2023/09/30 06:07:57;;;;;;;9.90;9.60;;;14.40;99.90;;;;;;5080752;28;20215;-88
2023/09/30 06:10:25;;;;;;;9.85;9.55;;;14.40;99.90;;;;;;5080613;28;20227;-88
2023/09/30 06:12:54;;;;;;;9.52;9.23;;;14.50;99.90;;;;;;5080271;28;20266;-88
2023/09/30 06:15:25;;;;;;;9.45;9.15;;;14.60;99.90;;;;;;5080656;28;20253;-88
2023/09/30 06:17:53;;;;;;;9.52;9.23;;;14.60;99.90;;;;;;5080236;28;20219;-87
2023/09/30 06:20:22;;;;;;;9.23;8.93;;;14.60;99.90;;;;;;5073909;28;20242;-86
2023/09/30 06:22:51;;;;;;;9.48;9.18;;;14.60;99.90;;;;;;5061809;28;20293;-87
2023/09/30 06:25:19;;;;;;;9.30;9.00;;;14.60;99.90;;;;;;5060229;28;20230;-86
2023/09/30 06:27:47;;;;;;;9.27;8.98;;;14.70;99.90;;;;;;5060390;28;20238;-86
2023/09/30 06:30:15;;;;;;;9.35;9.05;;;14.80;99.90;;;;;;5060642;28;20235;-86
2023/09/30 06:32:44;;;;;;;9.23;8.93;;;14.80;99.90;;;;;;5074413;28;20207;-87
2023/09/30 06:35:13;;;;;;;9.32;9.02;;;14.80;99.90;;;;;;5079865;28;20238;-88
2023/09/30 06:37:40;;;;;;;9.40;9.10;;;14.90;99.90;;;;;;5079797;28;20241;-87
2023/09/30 06:40:12;;;;;;;9.20;8.90;;;14.90;99.90;;;;;;5080347;28;20287;-87
2023/09/30 06:42:40;;;;;;;9.02;8.73;;;14.90;99.90;;;;;;5079937;28;20277;-87
2023/09/30 06:45:09;;;;;;;9.00;8.70;;;14.90;99.90;;;;;;5080249;28;20257;-87
2023/09/30 06:47:38;;;;;;;9.05;8.75;;;15.00;99.90;;;;;;5079691;28;20219;-87
2023/09/30 06:50:12;;;;;;;9.05;8.75;;;14.90;99.90;;;;;;5079764;28;20230;-88
2023/09/30 06:52:42;;;;;;;9.50;9.20;;;14.90;99.90;;;;;;5079159;28;20231;-88
2023/09/30 06:55:13;;;;;;;9.23;8.93;;;15.00;99.90;;;;;;5063827;28;20245;-86
2023/09/30 06:57:41;;;;;;;9.35;9.05;;;15.00;99.90;;;;;;5059067;28;20299;-86
2023/09/30 07:00:11;;;;;;;8.80;8.60;;;15.10;99.90;;;;;;5058537;28;20258;-86
2023/09/30 07:02:40;;;;;;;9.10;8.80;;;15.10;99.90;;;;;;5058975;28;20223;-87
2023/09/30 07:05:09;;;;;;;9.40;9.10;;;15.10;99.90;;;;;;5059185;28;20223;-86
2023/09/30 07:07:36;;;;;;;9.60;9.30;;;15.10;99.90;;;;;;5058765;28;20234;-86
2023/09/30 07:10:05;;;;;;;9.23;8.93;;;15.10;99.90;;;;;;5059304;28;20292;-86
2023/09/30 07:12:39;;;;;;;9.73;9.43;;;15.20;99.90;;;;;;5058115;28;20384;-87
2023/09/30 07:15:08;;;;;;;9.65;9.35;;;15.20;99.90;;;;;;5058461;28;20289;-86
2023/09/30 07:17:36;;;;;;;9.43;9.13;;;15.20;99.90;;;;;;5058552;28;20238;-86
2023/09/30 07:20:07;;;;;;;9.80;9.50;;;15.30;99.90;;;;;;5058354;28;20251;-86
2023/09/30 07:22:35;;;;;;;9.80;9.50;;;15.30;99.90;;;;;;5058360;28;20239;-86
2023/09/30 07:25:03;;;;;;;9.77;9.48;;;15.40;99.90;;;;;;5058917;28;20227;-87
2023/09/30 07:27:31;;;;;;;9.63;9.32;;;15.50;99.90;;;;;;5059011;28;20262;-87
2023/09/30 07:30:00;;;;;;;9.75;9.45;;;15.60;99.90;;;;;;5058689;28;20261;-87
2023/09/30 07:32:28;;;;;;;9.73;9.43;;;15.70;99.90;;;;;;5058027;28;20238;-86
2023/09/30 07:34:56;;;;;;;9.65;9.35;;;15.80;99.90;;;;;;5058176;28;20262;-86
2023/09/30 07:37:24;;;;;;;9.82;9.52;;;15.90;99.90;;;;;;5058187;28;20264;-86
2023/09/30 07:39:51;;;;;;;9.90;9.60;;;15.90;99.90;;;;;;5058590;28;20292;-87
2023/09/30 07:42:18;;;;;;;9.70;9.40;;;15.90;99.90;;;;;;5058336;28;20289;-87
2023/09/30 07:44:46;;;;;;;10.00;9.70;;;15.90;99.90;;;;;;5057742;28;20227;-86
2023/09/30 07:47:14;;;;;;;10.00;9.70;;;15.80;99.90;;;;;;5083711;22;20257;-83
2023/09/30 07:49:42;;;;;;;10.00;9.70;;;15.90;99.90;;;;;;5068473;28;20244;-81
2023/09/30 07:52:10;;;;;;;10.00;9.70;;;15.90;99.90;;;;;;5067974;28;20227;-81
2023/09/30 07:54:37;;;;;;;10.20;9.90;;;16.00;99.90;;;;;;5067260;28;20227;-82
2023/09/30 07:57:04;;;;;;;10.10;9.80;;;16.10;99.90;;;;;;5066126;28;20308;-81
2023/09/30 07:59:33;;;;;;;10.40;10.10;;;16.10;99.90;;;;;;5066154;28;20230;-81
2023/09/30 08:02:00;;;;;;;10.25;9.95;;;16.10;99.90;;;;;;5067879;28;20325;-81
2023/09/30 08:04:29;;;;;;;10.30;10.00;;;16.10;99.90;;;;;;5067346;28;20251;-82
2023/09/30 08:06:56;;;;;;;10.07;9.77;;;16.10;99.90;;;;;;5065648;28;20235;-81
2023/09/30 08:09:23;;;;;;;9.98;9.68;;;16.20;99.90;;;;;;5065228;28;20238;-82
2023/09/30 08:11:51;;;;;;;10.15;9.85;;;16.30;99.90;;;;;;5073391;28;20266;-81
2023/09/30 08:14:18;;;;;;;10.25;9.95;;;16.20;99.90;;;;;;5070446;28;20215;-81
2023/09/30 08:16:45;;;;;;;10.35;10.05;;;16.20;99.90;;;;;;5069514;28;20234;-81
2023/09/30 08:19:12;;;;;;;10.40;10.10;;;16.40;99.90;;;;;;5069730;28;20246;-82
2023/09/30 08:21:40;;;;;;;10.27;9.98;;;16.40;99.90;;;;;;5074313;28;20221;-81
2023/09/30 08:24:09;;;;;;;10.10;9.80;;;16.50;99.90;;;;;;5070017;28;20225;-82
2023/09/30 08:26:37;;;;;;;10.05;9.75;;;16.70;99.90;;;;;;5068905;28;20241;-82
2023/09/30 08:29:06;;;;;;;10.50;10.20;;;16.80;99.90;;;;;;5068544;28;20227;-81
2023/09/30 08:31:33;;;;;;;10.23;9.93;;;16.90;99.90;;;;;;5069581;28;20223;-81
2023/09/30 08:34:03;;;;;;;10.05;9.75;;;16.90;99.90;;;;;;5070686;28;20305;-83
2023/09/30 08:36:31;;;;;;;10.25;9.95;;;17.00;99.90;;;;;;5068611;28;20238;-82
2023/09/30 08:38:59;;;;;;;10.27;9.98;;;17.20;99.90;;;;;;5068711;28;20251;-81
2023/09/30 08:41:33;;;;;;;10.32;10.02;;;16.90;99.90;;;;;;5067999;28;20227;-81
2023/09/30 08:44:02;;;;;;;10.30;10.00;;;17.00;99.90;;;;;;5068007;28;20238;-81
2023/09/30 08:46:33;;;;;;;10.48;10.18;;;16.80;99.90;;;;;;5069623;28;20297;-81
2023/09/30 08:49:03;;;;;;;10.30;10.00;;;17.00;99.90;;;;;;5069255;28;20322;-83
2023/09/30 08:51:31;;;;;;;10.00;9.70;;;17.20;99.90;;;;;;5069215;28;20242;-82
2023/09/30 08:54:01;;;;;;;10.23;9.93;;;17.20;99.90;;;;;;5068644;28;20246;-82
2023/09/30 08:56:32;;;;;;;10.43;10.13;;;17.30;99.90;;;;;;5068379;28;20245;-82
2023/09/30 08:59:01;;;;;;;10.18;9.88;;;17.60;99.90;;;;;;5068129;28;20231;-82
2023/09/30 09:01:30;;;;;;;9.95;9.65;;;17.80;99.90;;;;;;5068129;28;20246;-82
2023/09/30 09:03:58;;;;;;;9.98;9.68;;;18.00;99.90;;;;;;5067600;28;20266;-82
2023/09/30 09:06:27;;;;;;;9.90;9.60;;;18.20;99.90;;;;;;5068213;28;20262;-82
2023/09/30 09:08:54;;;;;;;10.30;10.00;;;18.30;99.90;;;;;;5067772;28;20262;-82
2023/09/30 09:11:24;;;;;;;10.38;10.07;;;18.50;99.90;;;;;;5067667;28;20222;-82
2023/09/30 09:13:55;;;;;;;10.00;9.70;;;18.70;99.90;;;;;;5068775;28;20672;-82
2023/09/30 09:16:23;;;;;;;10.15;9.85;;;18.80;99.90;;;;;;5066784;28;20239;-82
2023/09/30 09:18:51;;;;;;;10.10;9.80;;;18.70;99.90;;;;;;5068496;28;20282;-82
2023/09/30 09:21:22;;;;;;;10.20;9.90;;;18.50;99.90;;;;;;5067604;28;20254;-83
2023/09/30 09:23:51;;;;;;;10.48;10.18;;;18.40;99.90;;;;;;5067796;28;20230;-81
2023/09/30 09:26:28;;;;;;;10.48;10.18;;;18.50;99.90;;;;;;5067747;28;20227;-81
2023/09/30 09:28:59;;;;;;;10.30;10.00;;;18.70;99.90;;;;;;5067247;28;20237;-82
2023/09/30 09:31:28;;;;;;;10.10;9.80;;;18.90;99.90;;;;;;5067295;28;20227;-83
2023/09/30 09:33:56;;;;;;;10.05;9.75;;;19.10;99.90;;;;;;5067103;28;20266;-81
2023/09/30 09:36:41;;;;;;;10.10;9.80;;;19.20;99.90;;;;;;5067175;28;20250;-81
2023/09/30 09:39:09;;;;;;;10.20;9.90;;;19.50;99.90;;;;;;5067194;28;20241;-81
2023/09/30 09:41:51;;;;;;;10.32;10.02;;;19.70;99.90;;;;;;5066626;28;20236;-81
2023/09/30 09:44:21;;;;;;;10.43;10.13;;;19.70;99.90;;;;;;5067389;28;20223;-81
2023/09/30 09:46:50;;;;;;;10.40;10.10;;;19.90;99.90;;;;;;5066324;28;20238;-81
2023/09/30 09:49:18;;;;;;;10.38;10.07;;;19.90;99.90;;;;;;5066479;28;20273;-81
2023/09/30 09:51:48;;;;;;;10.45;10.15;;;19.80;99.90;;;;;;5066843;28;20282;-81
2023/09/30 09:54:18;;;;;;;10.43;10.13;;;19.90;99.90;;;;;;5067585;28;20231;-81
2023/09/30 09:56:47;;;;;;;10.45;10.15;;;20.00;99.90;;;;;;5072286;28;20243;-81
2023/09/30 09:59:14;;;;;;;10.30;10.00;;;20.10;99.90;;;;;;5071206;28;21004;-83
2023/09/30 10:01:45;;;;;;;10.23;9.93;;;20.10;99.90;;;;;;5069291;28;20226;-81
2023/09/30 10:04:15;;;;;;;10.27;9.98;;;20.10;99.90;;;;;;5069632;28;20222;-83
2023/09/30 10:06:43;;;;;;;10.10;9.80;;;20.00;99.90;;;;;;5071958;28;20238;-83
2023/09/30 10:09:12;;;;;;;10.10;9.80;;;20.20;99.90;;;;;;5069702;28;20238;-83
2023/09/30 10:11:40;;;;;;;10.07;9.77;;;20.10;99.90;;;;;;5069262;28;20237;-83
2023/09/30 10:14:14;;;;;;;10.00;9.70;;;20.00;99.90;;;;;;5068573;28;20222;-82
2023/09/30 10:16:52;;;;;;;10.02;9.73;;;20.00;99.90;;;;;;5067637;28;20238;-82
2023/09/30 10:19:22;;;;;;;10.10;9.80;;;19.90;99.90;;;;;;5067909;28;20240;-82
2023/09/30 10:22:24;;;;;;;10.13;9.82;;;19.80;99.90;;;;;;5067277;28;20297;-83
2023/09/30 10:24:56;;;;;;;9.88;9.57;;;19.90;99.90;;;;;;5068393;28;20270;-83
2023/09/30 10:27:38;;;;;;;10.00;9.70;;;19.90;99.90;;;;;;5068314;28;20235;-82
2023/09/30 10:30:15;;;;;;;10.30;10.00;;;19.90;99.90;;;;;;5069088;28;20245;-82
2023/09/30 10:33:14;;;;;;;10.20;9.90;;;19.80;99.90;;;;;;5068344;28;20238;-83
2023/09/30 10:35:49;;;;;;;10.20;9.90;;;19.90;99.90;;;;;;5066874;28;20243;-82
2023/09/30 10:38:40;;;;;;;10.20;9.90;;;19.90;99.90;;;;;;5067351;28;20242;-82
2023/09/30 10:41:09;;;;;;;10.20;9.90;;;19.70;99.90;;;;;;5066046;28;20239;-82
2023/09/30 10:43:38;;;;;;;10.10;9.80;;;19.50;99.90;;;;;;5065995;28;20237;-83
2023/09/30 10:46:36;;;;;;;10.00;9.70;;;19.50;99.90;;;;;;5066814;28;20237;-83
2023/09/30 10:49:32;;;;;;;10.00;9.70;;;19.20;99.90;;;;;;5066570;28;20235;-83
2023/09/30 10:52:01;;;;;;;10.27;9.98;;;19.00;99.90;;;;;;5060286;28;20328;-83
2023/09/30 10:54:30;;;;;;;10.18;9.88;;;18.90;99.90;;;;;;5065814;28;20230;-83
2023/09/30 10:56:59;;;;;;;10.20;9.90;;;19.00;99.90;;;;;;5064945;28;20246;-83
2023/09/30 10:59:30;;;;;;;10.30;10.00;;;19.40;99.90;;;;;;5065151;28;20317;-83
2023/09/30 11:01:59;;;;;;;10.20;9.90;;;19.90;99.90;;;;;;5065468;28;20246;-82
2023/09/30 11:04:28;;;;;;;10.48;10.18;;;20.50;99.90;;;;;;5066073;28;20565;-83
2023/09/30 11:06:55;;;;;;;10.23;9.93;;;20.90;99.90;;;;;;5064819;28;20223;-82
2023/09/30 11:09:24;;;;;;;10.25;9.95;;;21.00;99.90;;;;;;5064463;28;20308;-83
2023/09/30 11:11:53;;;;;;;10.40;10.10;;;21.00;99.90;;;;;;5067257;28;20281;-82
2023/09/30 11:14:22;;;;;;;10.18;9.88;;;21.00;99.90;;;;;;5067342;28;20245;-82
2023/09/30 11:16:52;;;;;;;10.05;9.75;;;21.00;99.90;;;;;;5067093;28;20219;-83
2023/09/30 11:19:22;;;;;;;10.38;10.07;;;21.20;99.90;;;;;;5066838;28;20231;-82
2023/09/30 11:21:49;;;;;;;10.25;9.95;;;21.40;99.90;;;;;;5065813;28;20322;-83
2023/09/30 11:24:17;;;;;;;10.55;10.25;;;21.80;99.90;;;;;;5065332;28;20269;-83
2023/09/30 11:26:45;;;;;;;10.40;10.10;;;22.30;99.90;;;;;;5065865;28;20247;-83
2023/09/30 11:29:15;;;;;;;10.40;10.10;;;22.90;99.90;;;;;;5066497;28;20230;-83
2023/09/30 11:31:44;;;;;;;10.20;9.90;;;23.00;99.90;;;;;;5066842;28;20235;-84
2023/09/30 11:34:12;;;;;;;10.30;10.00;;;22.90;99.90;;;;;;5066633;28;20291;-83
2023/09/30 11:36:43;;;;;;;10.60;10.30;;;23.00;99.90;;;;;;5066887;28;20215;-85
2023/09/30 11:39:10;;;;;;;10.60;10.30;;;22.90;99.90;;;;;;5067694;28;20229;-83
2023/09/30 11:41:39;;;;;;;10.40;10.10;;;22.80;99.90;;;;;;5067247;28;20239;-83
2023/09/30 11:44:10;;;;;;;10.52;10.23;;;22.80;99.90;;;;;;5065341;28;20242;-84
2023/09/30 11:46:52;;;;;;;10.30;10.00;;;22.70;99.90;;;;;;5067088;28;20286;-83
2023/09/30 11:49:31;;;;;;;10.20;9.90;;;22.60;99.90;;;;;;5067606;28;20241;-83
2023/09/30 11:52:00;;;;;;;9.90;9.60;;;22.60;99.90;;;;;;5066295;28;20289;-83
2023/09/30 11:54:37;;;;;;;9.93;9.63;;;22.40;99.90;;;;;;5067923;28;20369;-83
2023/09/30 11:57:05;;;;;;;9.90;9.60;;;22.20;99.90;;;;;;5067606;28;20250;-83
2023/09/30 11:59:32;;;;;;;9.70;9.40;;;22.20;99.90;;;;;;5067166;28;20265;-83
2023/09/30 12:01:59;;;;;;;9.95;9.65;;;22.20;99.90;;;;;;5066443;28;20227;-83
2023/09/30 12:04:27;;;;;;;9.98;9.68;;;22.10;99.90;;;;;;5067317;28;20235;-83
2023/09/30 12:06:54;;;;;;;9.80;9.50;;;22.00;99.90;;;;;;5066181;28;20227;-82
2023/09/30 12:09:25;;;;;;;10.00;9.70;;;22.00;99.90;;;;;;5065182;28;20279;-83
2023/09/30 12:11:53;;;;;;;9.90;9.60;;;22.10;99.90;;;;;;5065791;28;20230;-83
2023/09/30 12:14:21;;;;;;;9.70;9.40;;;22.30;99.90;;;;;;5065317;28;20243;-83
2023/09/30 12:16:49;;;;;;;10.10;9.80;;;22.50;99.90;;;;;;5065197;28;20231;-83
2023/09/30 12:19:17;;;;;;;10.45;10.15;;;22.70;99.90;;;;;;5066074;28;20298;-83
2023/09/30 12:21:47;;;;;;;10.30;10.00;;;22.80;99.90;;;;;;5067153;28;20246;-84
2023/09/30 12:24:17;;;;;;;10.30;10.00;;;23.20;99.90;;;;;;5068059;28;20226;-83
2023/09/30 12:26:48;;;;;;;10.45;10.15;;;23.20;99.90;;;;;;5068105;28;20226;-83
2023/09/30 12:29:16;;;;;;;10.52;10.23;;;23.40;99.90;;;;;;5067900;28;20318;-83
2023/09/30 12:31:44;;;;;;;10.50;10.20;;;23.80;99.90;;;;;;5067494;28;20258;-84
2023/09/30 12:34:12;;;;;;;10.63;10.32;;;24.30;99.90;;;;;;5068360;28;20226;-84
2023/09/30 12:36:39;;;;;;;10.20;9.90;;;24.50;99.90;;;;;;5068815;28;20351;-83
2023/09/30 12:39:10;;;;;;;10.20;9.90;;;24.90;99.90;;;;;;5069962;28;20226;-80
2023/09/30 12:41:37;;;;;;;10.07;9.77;;;25.00;99.90;;;;;;5070200;28;20329;-81
2023/09/30 12:44:07;;;;;;;10.07;9.77;;;25.20;99.90;;;;;;5070122;28;20257;-81
2023/09/30 12:46:34;;;;;;;10.20;9.90;;;25.30;99.90;;;;;;5069835;28;20258;-81